Main page
METAR-TAF:

METAR-TAF

Airports :

Osijek, Croatia

Osijek Airport

latitude: 45-27N, longitude: 018-48E, elevation: 88 m

Current weather observation

The report was made 31 minutes ago, at 01:30 UTC
Wind 7 kt from the Northeast
Temperature 12°C
Humidity 100%
Pressure 1021 hPa
Visibility 10 km or more
Scattered clouds at a height of 3300 ft

METAR: LDOS 260130Z 05007KT 9999 SCT033 12/12 Q1021

Time: 04:01 (02:01 UTC)

Forecast

The report was made 2 hours and 36 minutes ago, at 23:25 UTC
Forecast valid from 26 at 00 UTC to 27 at 00 UTC
Wind 6 kt from the East/Northeast
Visibility 10 km or more
Scattered clouds at a height of 4000 ft

TAF: LDOS 252325Z 2600/2700 06006KT 9999 SCT040 TX18/2613Z TN11/2603Z

Weather observations and forecasts of more than 4000 airports (METAR and TAF reports).

The available stations are represented by yellow and red dots on the map.

Hover mouse over dot to see the name of the station.

Then click to see weather observations and forecasts.

To change the map : click on the green buttons with a black cross to zoom in, on the green button with a dash to zoom out, or on the green arrows for adjacent maps.


METAR-TAF: